createdAt,value
2022-08-24T00:00:57.710Z,37.75
2022-08-24T00:02:00.261Z,37.69
2022-08-24T00:03:03.123Z,37.59
2022-08-24T00:04:05.736Z,37.02
2022-08-24T00:05:12.715Z,37.03
2022-08-24T00:06:16.504Z,37.15
2022-08-24T00:07:27.204Z,37.29
2022-08-24T00:08:25.564Z,37.04
2022-08-24T00:09:28.836Z,37.13
2022-08-24T00:10:32.211Z,37.19
2022-08-24T00:11:35.689Z,37.27
2022-08-24T00:12:38.403Z,37.13
2022-08-24T00:13:41.156Z,37.19
2022-08-24T00:14:43.578Z,37.12
2022-08-24T00:15:46.066Z,35.66
2022-08-24T00:16:49.012Z,36.34
2022-08-24T00:17:51.388Z,36.80
2022-08-24T00:18:53.753Z,36.63
2022-08-24T00:19:56.135Z,36.40
2022-08-24T00:20:59.303Z,36.68
2022-08-24T00:22:01.626Z,36.77
2022-08-24T00:23:04.293Z,36.89
2022-08-24T00:24:06.907Z,36.70
2022-08-24T00:25:10.397Z,36.56
2022-08-24T00:26:14.386Z,35.97
2022-08-24T00:27:16.951Z,36.50
2022-08-24T00:28:20.034Z,36.39
2022-08-24T00:29:22.725Z,36.49
2022-08-24T00:30:26.261Z,36.54
2022-08-24T00:31:28.905Z,36.56
2022-08-24T00:32:31.528Z,36.67
2022-08-24T00:33:33.919Z,36.76
2022-08-24T00:34:36.211Z,36.81
2022-08-24T00:35:38.707Z,36.79
2022-08-24T00:36:41.491Z,36.16
2022-08-24T00:37:43.950Z,36.16
2022-08-24T00:38:47.350Z,36.23
2022-08-24T00:39:50.070Z,36.37
2022-08-24T00:40:53.087Z,36.38
2022-08-24T00:41:55.346Z,36.32
2022-08-24T00:42:59.352Z,36.34
2022-08-24T00:44:03.863Z,36.30
2022-08-24T00:45:08.223Z,36.14
2022-08-24T00:47:27.807Z,36.04
2022-08-24T00:48:31.533Z,36.18
2022-08-24T00:49:55.393Z,36.29
2022-08-24T00:51:00.518Z,36.31
2022-08-24T00:52:12.514Z,36.31
2022-08-24T00:53:26.957Z,35.82
2022-08-24T00:54:30.296Z,36.12
2022-08-24T00:55:39.155Z,36.08
2022-08-24T00:56:51.470Z,36.11
2022-08-24T00:57:57.161Z,36.04
2022-08-24T00:59:09.312Z,36.09
2022-08-24T01:00:21.251Z,36.18
2022-08-24T01:01:25.336Z,35.66
2022-08-24T01:02:31.673Z,35.78
2022-08-24T01:03:36.138Z,35.89
2022-08-24T01:04:42.299Z,35.78
2022-08-24T01:05:45.974Z,35.89
2022-08-24T01:06:49.906Z,35.86
2022-08-24T01:07:53.787Z,36.00
2022-08-24T01:08:57.017Z,36.01
2022-08-24T01:11:18.455Z,36.14
2022-08-24T01:12:20.990Z,36.10
2022-08-24T01:13:24.220Z,36.04
2022-08-24T01:14:26.853Z,35.98
2022-08-24T01:15:29.768Z,35.88
2022-08-24T01:16:32.898Z,35.75
2022-08-24T01:17:39.219Z,35.81
2022-08-24T01:18:41.210Z,35.86
2022-08-24T01:19:51.276Z,35.73
2022-08-24T01:22:22.046Z,35.88
2022-08-24T01:23:51.722Z,35.55
2022-08-24T01:24:54.508Z,35.82
2022-08-24T01:25:57.619Z,35.96
2022-08-24T01:27:00.566Z,36.03
2022-08-24T01:28:07.017Z,36.05
2022-08-24T01:29:10.939Z,36.01
2022-08-24T01:30:14.209Z,35.96
2022-08-24T01:31:20.299Z,35.82
2022-08-24T01:32:23.744Z,35.92
2022-08-24T01:33:27.952Z,35.96
2022-08-24T01:34:30.257Z,35.89
2022-08-24T01:35:34.022Z,35.92
2022-08-24T01:36:45.985Z,35.91
2022-08-24T01:37:48.643Z,35.91
2022-08-24T01:38:51.329Z,35.70
2022-08-24T01:39:55.866Z,35.79
2022-08-24T01:41:01.930Z,35.80
2022-08-24T01:42:04.663Z,35.48
2022-08-24T01:43:07.120Z,35.53
2022-08-24T01:44:09.685Z,35.59
2022-08-24T01:45:12.046Z,35.67
2022-08-24T01:46:16.151Z,35.71
2022-08-24T01:47:19.077Z,35.48
2022-08-24T01:48:22.958Z,35.45
2022-08-24T01:49:30.721Z,35.55
2022-08-24T01:50:35.438Z,35.32
2022-08-24T01:51:37.812Z,35.46
2022-08-24T01:53:04.025Z,35.51
2022-08-24T01:53:46.111Z,35.49
2022-08-24T01:54:48.467Z,35.47
2022-08-24T01:55:52.171Z,35.39
2022-08-24T01:56:55.606Z,35.42
2022-08-24T01:57:58.319Z,35.47
2022-08-24T01:59:00.984Z,35.50
2022-08-24T02:00:05.826Z,35.45
2022-08-24T02:01:10.071Z,35.29
2022-08-24T02:02:19.593Z,35.03
2022-08-24T02:03:27.892Z,35.23
2022-08-24T02:04:27.136Z,35.32
2022-08-24T02:05:30.327Z,34.97
2022-08-24T02:06:35.443Z,35.18
2022-08-24T02:07:38.012Z,35.23
2022-08-24T02:08:40.574Z,35.01
2022-08-24T02:09:43.582Z,34.94
2022-08-24T02:10:56.483Z,34.99
2022-08-24T02:11:51.550Z,35.09
2022-08-24T02:12:53.949Z,35.04
2022-08-24T02:13:56.538Z,35.16
2022-08-24T02:14:59.567Z,35.15
2022-08-24T02:16:03.928Z,35.19
2022-08-24T02:17:07.394Z,35.15
2022-08-24T02:18:15.684Z,34.78
2022-08-24T02:19:15.593Z,34.42
2022-08-24T02:20:19.775Z,34.78
2022-08-24T02:21:22.341Z,35.06
2022-08-24T02:22:24.801Z,35.18
2022-08-24T02:23:27.173Z,35.11
2022-08-24T02:24:30.030Z,35.17
2022-08-24T02:25:32.875Z,35.28
2022-08-24T02:26:35.483Z,35.32
2022-08-24T02:27:38.129Z,35.23
2022-08-24T02:28:41.839Z,34.56
2022-08-24T02:29:45.013Z,34.90
2022-08-24T02:30:48.788Z,35.08
2022-08-24T02:31:51.688Z,35.08
2022-08-24T02:32:54.045Z,35.13
2022-08-24T02:33:57.123Z,35.16
2022-08-24T02:34:59.596Z,35.11
2022-08-24T02:36:03.981Z,35.20
2022-08-24T02:37:08.005Z,35.27
2022-08-24T02:38:11.223Z,35.30
2022-08-24T02:39:13.819Z,34.90
2022-08-24T02:40:17.719Z,34.93
2022-08-24T02:41:22.077Z,34.99
2022-08-24T02:42:24.747Z,35.00
2022-08-24T02:43:27.649Z,35.00
2022-08-24T02:44:30.439Z,35.08
2022-08-24T02:45:35.503Z,35.00
2022-08-24T02:46:38.288Z,35.03
2022-08-24T02:47:42.299Z,35.07
2022-08-24T02:48:44.666Z,35.12
2022-08-24T02:49:47.308Z,35.15
2022-08-24T02:50:51.737Z,35.08
2022-08-24T02:51:54.389Z,35.08
2022-08-24T02:52:56.895Z,34.82
2022-08-24T02:54:00.742Z,34.83
2022-08-24T02:55:05.949Z,34.88
2022-08-24T02:56:08.958Z,34.78
2022-08-24T02:57:12.613Z,34.86
2022-08-24T02:58:16.436Z,34.88
2022-08-24T02:59:20.003Z,34.96
2022-08-24T03:00:23.451Z,34.88
2022-08-24T03:01:30.414Z,34.09
2022-08-24T03:02:32.201Z,34.42
2022-08-24T03:03:35.137Z,34.35
2022-08-24T03:04:38.209Z,34.48
2022-08-24T03:05:41.546Z,34.48
2022-08-24T03:06:45.387Z,34.24
2022-08-24T03:07:47.943Z,34.39
2022-08-24T03:08:56.115Z,34.66
2022-08-24T03:09:54.834Z,34.62
2022-08-24T03:10:59.249Z,34.59
2022-08-24T03:12:02.609Z,34.68
2022-08-24T03:13:05.044Z,34.19
2022-08-24T03:14:07.643Z,34.66
2022-08-24T03:15:12.121Z,34.66
2022-08-24T03:16:15.644Z,34.53
2022-08-24T03:17:18.420Z,34.48
2022-08-24T03:18:24.823Z,34.57
2022-08-24T03:19:27.763Z,34.54
2022-08-24T03:20:30.507Z,34.53
2022-08-24T03:21:32.878Z,34.54
2022-08-24T03:22:35.253Z,34.47
2022-08-24T03:23:37.633Z,34.65
2022-08-24T03:24:40.028Z,34.74
2022-08-24T03:25:42.430Z,34.79
2022-08-24T03:26:46.335Z,34.89
2022-08-24T03:27:49.006Z,34.85
2022-08-24T03:28:53.308Z,34.14
2022-08-24T03:29:56.429Z,34.42
2022-08-24T03:31:00.082Z,34.42
2022-08-24T03:32:04.078Z,34.48
2022-08-24T03:33:06.649Z,34.29
2022-08-24T03:34:10.663Z,34.34
2022-08-24T03:35:13.314Z,33.86
2022-08-24T03:36:17.587Z,34.20
2022-08-24T03:37:20.088Z,34.12
2022-08-24T03:38:22.474Z,34.27
2022-08-24T03:39:28.131Z,34.51
2022-08-24T03:40:32.230Z,34.38
2022-08-24T03:41:36.643Z,34.43
2022-08-24T03:42:39.986Z,34.63
2022-08-24T03:43:44.217Z,34.68
2022-08-24T03:44:46.684Z,34.67
2022-08-24T03:45:50.393Z,34.67
2022-08-24T03:46:53.800Z,34.76
2022-08-24T03:47:57.414Z,34.68
2022-08-24T03:49:00.208Z,34.58
2022-08-24T03:50:04.926Z,34.79
2022-08-24T03:51:12.762Z,34.73
2022-08-24T03:52:15.383Z,34.84
2022-08-24T03:53:17.817Z,34.66
2022-08-24T03:54:20.879Z,34.70
2022-08-24T03:55:23.814Z,34.45
2022-08-24T03:56:26.675Z,34.07
2022-08-24T03:57:29.525Z,34.59
2022-08-24T03:58:31.990Z,34.75
2022-08-24T03:59:34.572Z,34.96
2022-08-24T04:00:39.598Z,34.61
2022-08-24T04:01:42.194Z,34.71
2022-08-24T04:02:45.090Z,34.87
2022-08-24T04:03:49.779Z,34.79
2022-08-24T04:04:52.583Z,34.71
2022-08-24T04:05:54.890Z,34.85
2022-08-24T04:06:58.297Z,34.62
2022-08-24T04:08:00.839Z,34.83
2022-08-24T04:09:04.222Z,34.63
2022-08-24T04:10:10.282Z,34.66
2022-08-24T04:12:27.157Z,34.75
2022-08-24T04:13:30.000Z,34.74
2022-08-24T04:14:32.579Z,34.97
2022-08-24T04:15:39.206Z,35.00
2022-08-24T04:16:42.861Z,34.41
2022-08-24T04:17:47.146Z,34.78
2022-08-24T04:18:50.675Z,34.40
2022-08-24T04:19:53.760Z,34.52
2022-08-24T04:20:57.758Z,34.95
2022-08-24T04:22:02.264Z,35.08
2022-08-24T04:23:05.647Z,34.96
2022-08-24T04:24:08.463Z,35.03
2022-08-24T04:25:11.460Z,35.16
2022-08-24T04:26:16.162Z,34.75
2022-08-24T04:27:18.985Z,34.95
2022-08-24T04:28:21.440Z,34.81
2022-08-24T04:29:24.333Z,34.75
2022-08-24T04:30:28.940Z,34.72
2022-08-24T04:31:35.357Z,34.74
2022-08-24T04:32:37.929Z,34.96
2022-08-24T04:33:41.122Z,34.53
2022-08-24T04:34:43.820Z,34.73
2022-08-24T04:35:47.413Z,34.87
2022-08-24T04:36:51.142Z,34.92
2022-08-24T04:37:53.561Z,34.79
2022-08-24T04:38:56.158Z,34.82
2022-08-24T04:40:19.542Z,34.89
2022-08-24T04:41:30.873Z,34.92
2022-08-24T04:42:29.637Z,34.93
2022-08-24T04:43:33.336Z,34.93
2022-08-24T04:44:36.658Z,34.61
2022-08-24T04:45:43.450Z,34.70
2022-08-24T04:46:46.900Z,34.79
2022-08-24T04:47:49.751Z,34.85
2022-08-24T04:48:52.829Z,34.88
2022-08-24T04:49:55.848Z,34.83
2022-08-24T04:51:02.662Z,34.90
2022-08-24T04:52:05.363Z,34.91
2022-08-24T04:53:07.907Z,34.90
2022-08-24T04:54:11.137Z,34.94
2022-08-24T04:55:13.416Z,34.93
2022-08-24T04:56:20.118Z,34.87
2022-08-24T04:57:22.779Z,34.83
2022-08-24T04:58:25.347Z,34.92
2022-08-24T04:59:27.585Z,34.78
2022-08-24T05:00:31.430Z,34.91
2022-08-24T05:01:35.333Z,34.94
2022-08-24T05:02:43.015Z,34.86
2022-08-24T05:03:44.530Z,34.82
2022-08-24T05:04:46.856Z,34.83
2022-08-24T05:05:50.177Z,34.87
2022-08-24T05:06:54.493Z,34.86
2022-08-24T05:07:58.255Z,34.86
2022-08-24T05:09:01.154Z,34.95
2022-08-24T05:10:05.467Z,34.60
2022-08-24T05:11:10.605Z,34.76
2022-08-24T05:12:13.491Z,34.85
2022-08-24T05:13:18.171Z,34.90
2022-08-24T05:14:23.680Z,34.91
2022-08-24T05:15:25.691Z,34.97
2022-08-24T05:16:31.689Z,34.87
2022-08-24T05:17:33.942Z,34.92
2022-08-24T05:18:36.650Z,35.02
2022-08-24T05:19:39.417Z,34.97
2022-08-24T05:20:43.013Z,35.06
2022-08-24T05:21:45.752Z,35.04
2022-08-24T05:22:55.531Z,35.01
2022-08-24T05:23:55.814Z,35.04
2022-08-24T05:24:59.324Z,35.09
2022-08-24T05:26:07.316Z,35.12
2022-08-24T05:27:09.647Z,35.08
2022-08-24T05:28:14.071Z,35.04
2022-08-24T05:29:16.459Z,35.14
2022-08-24T05:30:21.290Z,35.24
2022-08-24T05:31:25.104Z,35.24
2022-08-24T05:32:27.626Z,35.24
2022-08-24T05:33:30.296Z,35.23
2022-08-24T05:34:32.722Z,35.26
2022-08-24T05:35:38.569Z,35.28
2022-08-24T05:36:42.872Z,35.33
2022-08-24T05:37:47.628Z,35.32
2022-08-24T05:38:52.608Z,35.35
2022-08-24T05:39:55.044Z,35.35
2022-08-24T05:40:58.599Z,35.31
2022-08-24T05:42:01.380Z,35.10
2022-08-24T05:43:05.689Z,35.16
2022-08-24T05:44:09.075Z,35.20
2022-08-24T05:45:11.723Z,35.24
2022-08-24T05:46:15.130Z,35.35
2022-08-24T05:47:19.329Z,35.35
2022-08-24T05:48:21.982Z,35.35
2022-08-24T05:49:41.219Z,35.36
2022-08-24T05:50:40.994Z,35.35
2022-08-24T05:51:43.638Z,35.40
2022-08-24T05:52:46.835Z,35.36
2022-08-24T05:53:49.210Z,35.29
2022-08-24T05:54:53.073Z,35.27
2022-08-24T05:55:55.751Z,35.33
2022-08-24T05:56:58.619Z,35.39
2022-08-24T05:58:02.005Z,35.42
2022-08-24T05:59:06.011Z,35.38
2022-08-24T06:00:10.878Z,35.39
2022-08-24T06:01:20.761Z,35.50
2022-08-24T06:02:24.389Z,35.54
2022-08-24T06:03:28.053Z,35.42
2022-08-24T06:04:31.023Z,35.52
2022-08-24T06:05:34.442Z,35.56
2022-08-24T06:06:38.622Z,35.53
2022-08-24T06:07:41.078Z,35.58
2022-08-24T06:08:45.561Z,35.57
2022-08-24T06:09:47.841Z,35.53
2022-08-24T06:10:50.459Z,35.52
2022-08-24T06:11:53.901Z,35.52
2022-08-24T06:12:57.609Z,35.53
2022-08-24T06:14:02.895Z,35.58
2022-08-24T06:15:09.485Z,35.56
2022-08-24T06:16:21.494Z,35.56
2022-08-24T06:17:17.479Z,35.55
2022-08-24T06:18:20.270Z,35.29
2022-08-24T06:19:23.647Z,35.29
2022-08-24T06:20:28.382Z,35.34
2022-08-24T06:21:31.031Z,35.39
2022-08-24T06:22:33.541Z,35.35
2022-08-24T06:23:37.186Z,35.43
2022-08-24T06:24:39.626Z,35.24
2022-08-24T06:25:43.549Z,35.08
2022-08-24T06:26:49.088Z,35.21
2022-08-24T06:27:50.638Z,35.26
2022-08-24T06:28:53.199Z,35.29
2022-08-24T06:30:01.088Z,35.24
2022-08-24T06:31:22.833Z,35.24
2022-08-24T06:32:28.034Z,35.31
2022-08-24T06:33:31.216Z,35.30
2022-08-24T06:34:34.367Z,35.21
2022-08-24T06:35:37.885Z,35.29
2022-08-24T06:36:41.989Z,35.28
2022-08-24T06:37:45.170Z,35.29
2022-08-24T06:38:49.908Z,35.39
2022-08-24T06:39:57.180Z,35.38
2022-08-24T06:41:00.140Z,35.20
2022-08-24T06:42:02.702Z,35.23
2022-08-24T06:43:06.250Z,35.21
2022-08-24T06:44:10.693Z,35.03
2022-08-24T06:45:15.431Z,35.07
2022-08-24T06:46:24.057Z,34.54
2022-08-24T06:47:23.945Z,35.05
2022-08-24T06:48:28.876Z,35.07
2022-08-24T06:49:32.758Z,35.09
2022-08-24T06:50:39.569Z,35.09
2022-08-24T06:51:42.402Z,35.07
2022-08-24T06:52:46.198Z,34.96
2022-08-24T06:53:49.192Z,34.92
2022-08-24T06:54:52.461Z,34.91
2022-08-24T06:55:56.965Z,35.03
2022-08-24T06:56:59.550Z,34.92
2022-08-24T06:58:03.264Z,35.00
2022-08-24T06:59:06.415Z,34.94
2022-08-24T07:00:11.873Z,34.86
2022-08-24T07:02:34.922Z,34.92
2022-08-24T07:03:37.359Z,34.90
2022-08-24T07:04:45.800Z,34.97
2022-08-24T07:06:07.118Z,34.97
2022-08-24T07:07:14.267Z,34.90
2022-08-24T07:08:20.964Z,34.80
2022-08-24T07:09:23.524Z,34.91
2022-08-24T07:10:28.898Z,34.89
2022-08-24T07:11:32.532Z,34.96
2022-08-24T07:12:36.701Z,34.88
2022-08-24T07:13:39.574Z,34.95
2022-08-24T07:14:41.923Z,34.99
2022-08-24T07:15:44.740Z,35.07
2022-08-24T07:16:48.931Z,35.25
2022-08-24T07:17:55.495Z,35.29
2022-08-24T07:18:58.053Z,35.25
2022-08-24T07:20:03.633Z,35.21
2022-08-24T07:21:25.996Z,35.11
2022-08-24T07:22:29.011Z,34.94
2022-08-24T07:23:42.294Z,35.10
2022-08-24T07:24:36.559Z,35.02
2022-08-24T07:25:38.942Z,35.15
2022-08-24T07:26:44.069Z,34.94
2022-08-24T07:27:46.388Z,34.95
2022-08-24T07:29:25.027Z,34.87
2022-08-24T07:30:26.921Z,34.90
2022-08-24T07:31:22.184Z,35.00
2022-08-24T07:32:26.672Z,34.90
2022-08-24T07:33:30.802Z,34.35
2022-08-24T07:34:34.386Z,34.35
2022-08-24T07:35:38.032Z,34.22
2022-08-24T07:36:44.286Z,34.52
2022-08-24T07:37:45.180Z,34.75
2022-08-24T07:38:48.251Z,34.27
2022-08-24T07:39:51.587Z,34.47
2022-08-24T07:41:20.274Z,34.06
2022-08-24T07:42:23.245Z,33.88
2022-08-24T07:43:08.047Z,33.93
2022-08-24T07:44:11.537Z,34.26
2022-08-24T07:45:14.313Z,34.47
2022-08-24T07:46:19.231Z,34.54
2022-08-24T07:47:37.694Z,34.37
2022-08-24T07:48:26.306Z,34.27
2022-08-24T07:49:36.944Z,34.72
2022-08-24T07:50:36.194Z,34.74
2022-08-24T07:51:43.745Z,34.85
2022-08-24T07:52:45.474Z,34.88
2022-08-24T07:53:53.805Z,34.69
2022-08-24T07:54:53.394Z,34.18
2022-08-24T07:55:56.563Z,33.71
2022-08-24T07:56:59.839Z,33.78
2022-08-24T07:58:03.168Z,34.03
2022-08-24T07:59:09.739Z,33.61
2022-08-24T08:00:13.699Z,33.66
2022-08-24T08:01:20.729Z,34.11
2022-08-24T08:02:33.656Z,34.57
2022-08-24T08:03:32.229Z,34.64
2022-08-24T08:04:35.461Z,34.67
2022-08-24T08:05:38.184Z,34.89
2022-08-24T08:06:41.876Z,34.95
2022-08-24T08:07:45.679Z,35.07
2022-08-24T08:08:50.149Z,35.23
2022-08-24T08:09:53.171Z,34.80
2022-08-24T08:10:55.925Z,34.84
2022-08-24T08:11:59.738Z,35.15
2022-08-24T08:13:03.777Z,35.26
2022-08-24T08:14:07.967Z,34.93
2022-08-24T08:15:11.699Z,35.13
2022-08-24T08:16:16.810Z,35.39
2022-08-24T08:17:19.431Z,35.48
2022-08-24T08:18:21.796Z,35.63
2022-08-24T08:19:24.971Z,35.63
2022-08-24T08:21:51.270Z,35.69
2022-08-24T08:22:55.208Z,35.64
2022-08-24T08:24:16.607Z,35.61
2022-08-24T08:25:22.731Z,35.59
2022-08-24T08:26:27.496Z,35.61
2022-08-24T08:27:32.259Z,35.57
2022-08-24T08:28:36.108Z,35.54
2022-08-24T08:29:39.823Z,35.51
2022-08-24T08:30:42.635Z,35.57
2022-08-24T08:31:45.326Z,35.50
2022-08-24T08:32:48.670Z,35.62
2022-08-24T08:33:51.281Z,35.58
2022-08-24T08:34:57.662Z,35.45
2022-08-24T08:36:06.041Z,35.47
2022-08-24T08:37:09.606Z,35.44
2022-08-24T08:38:13.022Z,35.23
2022-08-24T08:39:17.066Z,35.40
2022-08-24T08:42:09.214Z,35.10
2022-08-24T08:43:41.231Z,35.07
2022-08-24T08:45:07.398Z,35.11
2022-08-24T08:46:16.902Z,35.45
2022-08-24T08:47:45.302Z,35.30
2022-08-24T08:49:17.196Z,35.55
2022-08-24T08:50:29.905Z,35.08
2022-08-24T08:52:06.788Z,34.79
2022-08-24T08:53:41.076Z,34.87
2022-08-24T08:56:34.658Z,34.55
2022-08-24T08:57:40.759Z,34.50
2022-08-24T08:58:59.381Z,34.80
2022-08-24T09:00:16.406Z,34.21
2022-08-24T09:01:46.725Z,34.35
2022-08-24T09:03:03.421Z,34.48
2022-08-24T09:04:46.231Z,34.51
2022-08-24T09:06:12.903Z,34.29
2022-08-24T09:07:22.046Z,34.21
2022-08-24T09:08:52.051Z,34.38
2022-08-24T09:10:10.707Z,34.44
2022-08-24T09:13:07.690Z,34.19
2022-08-24T09:14:23.369Z,34.10
2022-08-24T09:15:46.973Z,33.79
2022-08-24T09:17:00.051Z,33.73
2022-08-24T09:20:04.127Z,33.37
2022-08-24T09:21:38.705Z,33.67
2022-08-24T09:22:43.451Z,33.58
2022-08-24T09:23:53.811Z,33.11
2022-08-24T09:26:33.544Z,33.18
2022-08-24T09:27:51.569Z,32.94
2022-08-24T09:30:15.659Z,32.85
2022-08-24T09:31:44.156Z,32.85
2022-08-24T09:33:06.640Z,32.76
2022-08-24T09:34:19.686Z,32.74
2022-08-24T09:35:54.179Z,32.47
2022-08-24T09:37:32.681Z,32.49
2022-08-24T09:38:52.397Z,32.57
2022-08-24T09:40:16.678Z,32.20
2022-08-24T09:41:32.830Z,32.63
2022-08-24T09:42:45.709Z,32.27
2022-08-24T09:46:04.452Z,32.68
2022-08-24T09:47:13.312Z,32.47
2022-08-24T09:48:28.510Z,32.57
2022-08-24T09:51:25.259Z,32.47
2022-08-24T09:52:54.383Z,32.48
2022-08-24T09:54:09.188Z,32.79
2022-08-24T09:55:41.857Z,33.62
2022-08-24T09:57:12.179Z,33.98
2022-08-24T09:58:14.486Z,36.36
2022-08-24T09:59:20.538Z,36.67
2022-08-24T10:00:27.804Z,36.76
2022-08-24T10:01:59.693Z,36.49
2022-08-24T10:03:32.381Z,36.50
2022-08-24T10:04:34.446Z,36.25
2022-08-24T10:06:03.105Z,36.06
2022-08-24T10:07:12.181Z,35.93
2022-08-24T10:08:53.056Z,35.36
2022-08-24T10:11:51.780Z,35.81
2022-08-24T10:13:04.449Z,36.10
2022-08-24T10:14:31.524Z,36.67
2022-08-24T10:16:02.203Z,37.19
2022-08-24T10:17:23.885Z,37.11
2022-08-24T10:18:46.737Z,38.37
2022-08-24T10:19:52.929Z,38.82
2022-08-24T10:21:21.402Z,39.22
2022-08-24T10:24:05.024Z,37.29
2022-08-24T10:25:27.257Z,37.21
2022-08-24T10:26:55.977Z,36.75
2022-08-24T10:28:23.604Z,36.74
2022-08-24T10:29:56.322Z,36.67
2022-08-24T10:31:12.084Z,36.25
2022-08-24T10:32:25.574Z,36.93
2022-08-24T10:33:56.295Z,37.51
2022-08-24T10:36:55.727Z,37.63
2022-08-24T10:38:27.040Z,37.81
2022-08-24T10:39:36.411Z,38.92
2022-08-24T10:42:31.929Z,38.35
2022-08-24T10:44:08.618Z,37.91
2022-08-24T10:45:27.174Z,38.57
2022-08-24T10:46:45.622Z,38.00
2022-08-24T10:48:19.531Z,37.76
2022-08-24T10:51:30.425Z,38.33
2022-08-24T10:54:06.090Z,38.67
2022-08-24T10:56:46.296Z,38.45
2022-08-24T10:58:09.432Z,38.34
2022-08-24T11:00:30.550Z,38.31
2022-08-24T11:01:35.429Z,38.15
2022-08-24T11:02:43.486Z,38.29
2022-08-24T11:03:49.634Z,38.35
2022-08-24T11:04:56.724Z,38.41
2022-08-24T11:05:59.058Z,38.26
2022-08-24T11:07:07.691Z,38.23
2022-08-24T11:08:13.099Z,38.03
2022-08-24T11:09:19.734Z,38.19
2022-08-24T11:10:25.930Z,38.16
2022-08-24T11:12:50.133Z,38.18
2022-08-24T11:14:00.900Z,38.19
2022-08-24T11:15:12.805Z,38.34
2022-08-24T11:16:24.599Z,38.40
2022-08-24T11:17:28.914Z,38.36
2022-08-24T11:18:53.843Z,38.25
2022-08-24T11:19:57.426Z,38.19
2022-08-24T11:21:01.166Z,38.21
2022-08-24T11:22:05.730Z,38.25
2022-08-24T11:23:31.454Z,38.22
2022-08-24T11:24:41.241Z,38.07
2022-08-24T11:27:08.804Z,37.94
2022-08-24T11:28:24.020Z,37.76
2022-08-24T11:30:40.307Z,37.82
2022-08-24T11:31:43.109Z,37.73
2022-08-24T11:32:49.257Z,37.74
2022-08-24T11:33:55.355Z,37.61
2022-08-24T11:36:35.612Z,37.04
2022-08-24T11:37:38.190Z,37.23
2022-08-24T11:38:45.799Z,36.94
2022-08-24T11:39:46.004Z,36.91
2022-08-24T11:41:20.408Z,36.73
2022-08-24T11:42:44.066Z,37.00
2022-08-24T11:45:38.002Z,36.54
2022-08-24T11:46:53.076Z,36.61
2022-08-24T11:48:16.873Z,36.57
2022-08-24T11:49:24.148Z,36.52
2022-08-24T11:52:09.921Z,36.40
2022-08-24T11:55:05.426Z,36.52
2022-08-24T11:57:48.302Z,36.46
2022-08-24T11:59:05.272Z,36.54
2022-08-24T12:00:11.341Z,36.53
2022-08-24T12:01:35.931Z,36.51
2022-08-24T12:02:59.297Z,36.50
2022-08-24T12:04:18.412Z,36.33
2022-08-24T12:06:57.624Z,37.13
2022-08-24T12:08:27.350Z,36.73
2022-08-24T12:09:57.777Z,36.74
2022-08-24T12:11:13.884Z,36.63
2022-08-24T12:12:30.355Z,36.79
2022-08-24T12:13:45.878Z,36.64
2022-08-24T12:14:58.806Z,36.92
2022-08-24T12:16:29.633Z,36.75
2022-08-24T12:17:44.049Z,36.62
2022-08-24T12:19:12.858Z,36.93
2022-08-24T12:20:31.764Z,37.25
2022-08-24T12:21:38.951Z,37.60
2022-08-24T12:22:48.243Z,37.56
2022-08-24T12:25:17.765Z,37.85
2022-08-24T12:26:30.269Z,37.91
2022-08-24T12:27:33.448Z,37.97
2022-08-24T12:28:38.890Z,38.19
2022-08-24T12:29:45.617Z,38.18
2022-08-24T12:30:50.063Z,38.30
2022-08-24T12:31:56.731Z,38.06
2022-08-24T12:33:07.521Z,37.82
2022-08-24T12:34:23.763Z,37.74
2022-08-24T12:35:32.278Z,37.70
2022-08-24T12:36:43.850Z,37.99
2022-08-24T12:39:22.671Z,37.58
2022-08-24T12:40:47.158Z,36.86
2022-08-24T12:43:27.614Z,36.96
2022-08-24T12:45:48.720Z,36.66
2022-08-24T12:48:18.662Z,36.76
2022-08-24T12:49:33.709Z,36.64
2022-08-24T12:50:52.705Z,36.67
2022-08-24T12:52:07.214Z,36.66
2022-08-24T12:53:35.212Z,36.69
2022-08-24T12:54:44.400Z,36.20
2022-08-24T12:56:20.548Z,36.03
2022-08-24T12:57:54.047Z,35.70
2022-08-24T12:59:22.098Z,35.71
2022-08-24T13:00:30.641Z,35.43
2022-08-24T13:01:38.699Z,35.75
2022-08-24T13:02:48.359Z,35.89
2022-08-24T13:03:49.064Z,36.03
2022-08-24T13:04:56.241Z,35.94
2022-08-24T13:06:02.279Z,35.97
2022-08-24T13:07:09.870Z,36.04
2022-08-24T13:08:36.064Z,36.11
2022-08-24T13:09:41.107Z,36.25
2022-08-24T13:10:47.048Z,35.96
2022-08-24T13:11:51.990Z,35.93
2022-08-24T13:13:07.446Z,36.07
2022-08-24T13:14:14.217Z,36.19
2022-08-24T13:15:28.295Z,36.21
2022-08-24T13:16:52.737Z,35.83
2022-08-24T13:18:08.694Z,35.95
2022-08-24T13:19:17.922Z,35.90
2022-08-24T13:20:28.197Z,36.23
2022-08-24T13:21:36.897Z,36.12
2022-08-24T13:22:45.555Z,36.16
2022-08-24T13:23:48.304Z,36.18
2022-08-24T13:25:02.045Z,36.01
2022-08-24T13:26:25.258Z,36.18
2022-08-24T13:27:40.831Z,36.20
2022-08-24T13:28:54.382Z,36.26
2022-08-24T13:30:07.913Z,36.29
2022-08-24T13:31:31.190Z,36.10
2022-08-24T13:32:41.395Z,35.99
2022-08-24T13:34:06.680Z,36.34
2022-08-24T13:35:28.883Z,36.39
2022-08-24T13:36:40.614Z,36.79
2022-08-24T13:37:45.555Z,36.63
2022-08-24T13:40:18.495Z,36.91
2022-08-24T13:41:51.009Z,36.97
2022-08-24T13:44:42.100Z,37.41
2022-08-24T13:47:08.145Z,37.20
2022-08-24T13:50:27.496Z,37.23
2022-08-24T13:51:49.105Z,37.15
2022-08-24T13:53:30.361Z,37.07
2022-08-24T13:54:46.229Z,36.97
2022-08-24T13:56:16.603Z,36.99
2022-08-24T13:57:36.259Z,37.00
2022-08-24T13:58:49.574Z,36.95
2022-08-24T14:00:14.834Z,36.95
2022-08-24T14:01:30.673Z,36.98
2022-08-24T14:04:26.602Z,37.14
2022-08-24T14:05:41.825Z,37.11
2022-08-24T14:07:10.174Z,37.05
2022-08-24T14:08:18.565Z,37.07
2022-08-24T14:09:37.538Z,37.17
2022-08-24T14:10:53.803Z,37.25
2022-08-24T14:12:15.460Z,37.23
2022-08-24T14:13:37.575Z,37.18
2022-08-24T14:15:13.845Z,37.21
2022-08-24T14:16:26.540Z,37.33
2022-08-24T14:17:44.645Z,37.25
2022-08-24T14:19:12.439Z,37.22
2022-08-24T14:20:57.774Z,37.36
2022-08-24T14:22:07.762Z,37.28
2022-08-24T14:23:31.168Z,37.27
2022-08-24T14:26:38.494Z,37.35
2022-08-24T14:27:57.921Z,37.42
2022-08-24T14:29:28.919Z,37.38
2022-08-24T14:30:38.067Z,37.32
2022-08-24T14:33:17.706Z,37.29
2022-08-24T14:34:45.915Z,37.20
2022-08-24T14:37:48.396Z,37.20
2022-08-24T14:38:58.265Z,37.29
2022-08-24T14:40:25.299Z,37.36
2022-08-24T14:43:30.943Z,37.52
2022-08-24T14:44:52.407Z,37.52
2022-08-24T14:46:29.258Z,37.54
2022-08-24T14:47:49.784Z,37.57
2022-08-24T14:48:56.127Z,37.65
2022-08-24T14:50:09.223Z,37.67
2022-08-24T14:51:30.542Z,37.76
2022-08-24T14:52:45.017Z,37.76
2022-08-24T14:54:00.455Z,37.80
2022-08-24T14:55:22.273Z,37.82
2022-08-24T14:56:51.974Z,37.77
2022-08-24T14:58:17.682Z,37.69
2022-08-24T14:59:36.336Z,37.54
2022-08-24T15:02:18.840Z,37.33
2022-08-24T15:03:34.211Z,37.28
2022-08-24T15:04:43.729Z,37.17
2022-08-24T15:07:29.209Z,37.28
2022-08-24T15:08:37.147Z,37.27
2022-08-24T15:09:42.331Z,37.22
2022-08-24T15:12:46.854Z,37.21
2022-08-24T15:15:45.193Z,37.02
2022-08-24T15:16:55.471Z,37.06
2022-08-24T15:19:23.095Z,37.01
2022-08-24T15:20:43.650Z,37.01
2022-08-24T15:22:02.493Z,37.01
2022-08-24T15:23:15.812Z,36.88
2022-08-24T15:24:33.092Z,36.84
2022-08-24T15:25:39.583Z,36.74
2022-08-24T15:27:09.293Z,36.79
2022-08-24T15:28:26.223Z,36.77
2022-08-24T15:29:32.792Z,36.86
2022-08-24T15:30:36.555Z,36.87
2022-08-24T15:31:40.232Z,36.91
2022-08-24T15:32:52.425Z,36.88
2022-08-24T15:33:56.942Z,36.79
2022-08-24T15:34:59.943Z,36.85
2022-08-24T15:36:17.106Z,36.91
2022-08-24T15:37:32.711Z,36.95
2022-08-24T15:38:37.224Z,36.98
2022-08-24T15:39:39.903Z,37.04
2022-08-24T15:40:45.179Z,37.10
2022-08-24T15:41:48.103Z,37.15
2022-08-24T15:42:53.159Z,37.17
2022-08-24T15:43:59.059Z,37.19
2022-08-24T15:45:03.382Z,37.27
2022-08-24T15:46:06.788Z,37.29
2022-08-24T15:47:16.212Z,37.29
2022-08-24T15:48:22.419Z,37.15
2022-08-24T15:49:27.571Z,37.13
2022-08-24T15:50:38.232Z,37.09
2022-08-24T15:51:58.009Z,37.14
2022-08-24T15:53:02.001Z,37.16
2022-08-24T15:55:40.166Z,37.20
2022-08-24T15:57:05.536Z,37.26
2022-08-24T15:58:26.450Z,37.26
2022-08-24T15:59:39.512Z,37.14
2022-08-24T16:00:44.719Z,37.14
2022-08-24T16:01:51.577Z,37.11
2022-08-24T16:02:57.106Z,37.21